sensor_id;sensor_type;location;lat;lon;timestamp;temperature;humidity
52565;DHT22;38460;53.106;7.004;2023-07-29T00:02:09;18.70;99.90
52565;DHT22;38460;53.106;7.004;2023-07-29T00:04:34;18.70;99.90
52565;DHT22;38460;53.106;7.004;2023-07-29T00:07:00;18.70;99.90
52565;DHT22;38460;53.106;7.004;2023-07-29T00:09:26;18.70;99.90
52565;DHT22;38460;53.106;7.004;2023-07-29T00:11:51;18.60;99.90
52565;DHT22;38460;53.106;7.004;2023-07-29T00:14:17;18.60;99.90
52565;DHT22;38460;53.106;7.004;2023-07-29T00:16:43;18.60;99.90
52565;DHT22;38460;53.106;7.004;2023-07-29T00:19:09;18.60;99.90
52565;DHT22;38460;53.106;7.004;2023-07-29T00:21:34;18.60;99.90
52565;DHT22;38460;53.106;7.004;2023-07-29T00:24:00;18.50;99.90
52565;DHT22;38460;53.106;7.004;2023-07-29T00:26:27;18.50;99.90
52565;DHT22;38460;53.106;7.004;2023-07-29T00:28:55;18.50;99.90
52565;DHT22;38460;53.106;7.004;2023-07-29T00:31:21;18.50;99.90
52565;DHT22;38460;53.106;7.004;2023-07-29T00:33:47;18.50;99.90
52565;DHT22;38460;53.106;7.004;2023-07-29T00:36:13;18.50;99.90
52565;DHT22;38460;53.106;7.004;2023-07-29T00:38:38;18.40;99.90
52565;DHT22;38460;53.106;7.004;2023-07-29T00:41:04;18.40;99.90
52565;DHT22;38460;53.106;7.004;2023-07-29T00:43:30;18.40;99.90
52565;DHT22;38460;53.106;7.004;2023-07-29T00:45:56;18.40;99.90
52565;DHT22;38460;53.106;7.004;2023-07-29T00:48:23;18.30;99.90
52565;DHT22;38460;53.106;7.004;2023-07-29T00:50:49;18.40;99.90
52565;DHT22;38460;53.106;7.004;2023-07-29T00:53:15;18.40;99.90
52565;DHT22;38460;53.106;7.004;2023-07-29T00:55:42;18.30;99.90
52565;DHT22;38460;53.106;7.004;2023-07-29T00:58:07;18.30;99.90
52565;DHT22;38460;53.106;7.004;2023-07-29T01:00:33;18.30;99.90
52565;DHT22;38460;53.106;7.004;2023-07-29T01:02:59;18.20;99.90
52565;DHT22;38460;53.106;7.004;2023-07-29T01:05:31;18.20;99.90
52565;DHT22;38460;53.106;7.004;2023-07-29T01:08:21;18.20;99.90
52565;DHT22;38460;53.106;7.004;2023-07-29T01:13:33;18.20;99.90
52565;DHT22;38460;53.106;7.004;2023-07-29T01:16:06;18.10;99.90
52565;DHT22;38460;53.106;7.004;2023-07-29T01:18:36;18.10;99.90
52565;DHT22;38460;53.106;7.004;2023-07-29T01:21:04;18.10;99.90
52565;DHT22;38460;53.106;7.004;2023-07-29T01:23:34;18.10;99.90
52565;DHT22;38460;53.106;7.004;2023-07-29T01:26:00;18.10;99.90
52565;DHT22;38460;53.106;7.004;2023-07-29T01:28:27;18.00;99.90
52565;DHT22;38460;53.106;7.004;2023-07-29T01:31:42;18.00;99.90
52565;DHT22;38460;53.106;7.004;2023-07-29T01:34:06;18.00;99.90
52565;DHT22;38460;53.106;7.004;2023-07-29T01:36:37;17.90;99.90
52565;DHT22;38460;53.106;7.004;2023-07-29T01:39:06;17.90;99.90
52565;DHT22;38460;53.106;7.004;2023-07-29T01:41:33;17.90;99.90
52565;DHT22;38460;53.106;7.004;2023-07-29T01:43:59;17.90;99.90
52565;DHT22;38460;53.106;7.004;2023-07-29T01:46:25;17.80;99.90
52565;DHT22;38460;53.106;7.004;2023-07-29T01:48:51;17.80;99.90
52565;DHT22;38460;53.106;7.004;2023-07-29T01:51:17;17.80;99.90
52565;DHT22;38460;53.106;7.004;2023-07-29T01:53:42;17.80;99.90
52565;DHT22;38460;53.106;7.004;2023-07-29T01:56:08;17.80;99.90
52565;DHT22;38460;53.106;7.004;2023-07-29T01:58:34;17.70;99.90
52565;DHT22;38460;53.106;7.004;2023-07-29T02:00:59;17.70;99.90
52565;DHT22;38460;53.106;7.004;2023-07-29T02:03:25;17.60;99.90
52565;DHT22;38460;53.106;7.004;2023-07-29T02:05:51;17.60;99.90
52565;DHT22;38460;53.106;7.004;2023-07-29T02:08:17;17.60;99.90
52565;DHT22;38460;53.106;7.004;2023-07-29T02:10:42;17.50;99.90
52565;DHT22;38460;53.106;7.004;2023-07-29T02:13:10;17.50;99.90
52565;DHT22;38460;53.106;7.004;2023-07-29T02:15:36;17.50;99.90
52565;DHT22;38460;53.106;7.004;2023-07-29T02:18:02;17.50;99.90
52565;DHT22;38460;53.106;7.004;2023-07-29T02:20:28;17.40;99.90
52565;DHT22;38460;53.106;7.004;2023-07-29T02:22:54;17.40;99.90
52565;DHT22;38460;53.106;7.004;2023-07-29T02:25:20;17.40;99.90
52565;DHT22;38460;53.106;7.004;2023-07-29T02:27:46;17.30;99.90
52565;DHT22;38460;53.106;7.004;2023-07-29T02:30:11;17.30;99.90
52565;DHT22;38460;53.106;7.004;2023-07-29T02:32:38;17.30;99.90
52565;DHT22;38460;53.106;7.004;2023-07-29T02:35:04;17.30;99.90
52565;DHT22;38460;53.106;7.004;2023-07-29T02:37:30;17.30;99.90
52565;DHT22;38460;53.106;7.004;2023-07-29T02:39:56;17.20;99.90
52565;DHT22;38460;53.106;7.004;2023-07-29T02:42:21;17.20;99.90
52565;DHT22;38460;53.106;7.004;2023-07-29T02:44:47;17.20;99.90
52565;DHT22;38460;53.106;7.004;2023-07-29T02:47:13;17.20;99.90
52565;DHT22;38460;53.106;7.004;2023-07-29T02:49:38;17.20;99.90
52565;DHT22;38460;53.106;7.004;2023-07-29T02:52:04;17.10;99.90
52565;DHT22;38460;53.106;7.004;2023-07-29T02:54:30;17.10;99.90
52565;DHT22;38460;53.106;7.004;2023-07-29T02:56:56;17.10;99.90
52565;DHT22;38460;53.106;7.004;2023-07-29T02:59:22;17.10;99.90
52565;DHT22;38460;53.106;7.004;2023-07-29T03:01:47;17.10;99.90
52565;DHT22;38460;53.106;7.004;2023-07-29T03:04:13;17.00;99.90
52565;DHT22;38460;53.106;7.004;2023-07-29T03:06:39;17.10;99.90
52565;DHT22;38460;53.106;7.004;2023-07-29T03:09:05;17.00;99.90
52565;DHT22;38460;53.106;7.004;2023-07-29T03:11:31;17.00;99.90
52565;DHT22;38460;53.106;7.004;2023-07-29T03:13:56;17.00;99.90
52565;DHT22;38460;53.106;7.004;2023-07-29T03:16:22;17.00;99.90
52565;DHT22;38460;53.106;7.004;2023-07-29T03:18:49;17.00;99.90
52565;DHT22;38460;53.106;7.004;2023-07-29T03:21:14;17.00;99.90
52565;DHT22;38460;53.106;7.004;2023-07-29T03:23:41;17.00;99.90
52565;DHT22;38460;53.106;7.004;2023-07-29T03:26:06;17.00;99.90
52565;DHT22;38460;53.106;7.004;2023-07-29T03:28:40;17.00;99.90
52565;DHT22;38460;53.106;7.004;2023-07-29T03:31:06;17.00;99.90
52565;DHT22;38460;53.106;7.004;2023-07-29T03:33:31;17.00;99.90
52565;DHT22;38460;53.106;7.004;2023-07-29T03:35:57;17.00;99.90
52565;DHT22;38460;53.106;7.004;2023-07-29T03:38:23;17.00;99.90
52565;DHT22;38460;53.106;7.004;2023-07-29T03:40:49;17.00;99.90
52565;DHT22;38460;53.106;7.004;2023-07-29T03:43:14;17.00;99.90
52565;DHT22;38460;53.106;7.004;2023-07-29T03:45:40;16.90;99.90
52565;DHT22;38460;53.106;7.004;2023-07-29T03:48:07;16.90;99.90
52565;DHT22;38460;53.106;7.004;2023-07-29T03:50:36;16.90;99.90
52565;DHT22;38460;53.106;7.004;2023-07-29T03:53:03;16.90;99.90
52565;DHT22;38460;53.106;7.004;2023-07-29T03:55:29;16.90;99.90
52565;DHT22;38460;53.106;7.004;2023-07-29T03:57:56;16.80;99.90
52565;DHT22;38460;53.106;7.004;2023-07-29T04:00:22;16.80;99.90
52565;DHT22;38460;53.106;7.004;2023-07-29T04:02:48;16.90;99.90
52565;DHT22;38460;53.106;7.004;2023-07-29T04:05:14;16.80;99.90
52565;DHT22;38460;53.106;7.004;2023-07-29T04:07:40;16.80;99.90
52565;DHT22;38460;53.106;7.004;2023-07-29T04:10:06;16.80;99.90
52565;DHT22;38460;53.106;7.004;2023-07-29T04:12:32;16.80;99.90
52565;DHT22;38460;53.106;7.004;2023-07-29T04:14:58;16.80;99.90
52565;DHT22;38460;53.106;7.004;2023-07-29T04:17:24;16.80;99.90
52565;DHT22;38460;53.106;7.004;2023-07-29T04:19:49;16.70;99.90
52565;DHT22;38460;53.106;7.004;2023-07-29T04:22:16;16.70;99.90
52565;DHT22;38460;53.106;7.004;2023-07-29T04:24:42;16.70;99.90
52565;DHT22;38460;53.106;7.004;2023-07-29T04:27:08;16.70;99.90
52565;DHT22;38460;53.106;7.004;2023-07-29T04:29:33;16.80;99.90
52565;DHT22;38460;53.106;7.004;2023-07-29T04:32:02;16.70;99.90
52565;DHT22;38460;53.106;7.004;2023-07-29T04:34:27;16.60;99.90
52565;DHT22;38460;53.106;7.004;2023-07-29T04:36:53;16.60;99.90
52565;DHT22;38460;53.106;7.004;2023-07-29T04:39:19;16.60;99.90
52565;DHT22;38460;53.106;7.004;2023-07-29T04:41:45;16.60;99.90
52565;DHT22;38460;53.106;7.004;2023-07-29T04:44:10;16.60;99.90
52565;DHT22;38460;53.106;7.004;2023-07-29T04:46:36;16.70;99.90
52565;DHT22;38460;53.106;7.004;2023-07-29T04:49:02;16.70;99.90
52565;DHT22;38460;53.106;7.004;2023-07-29T04:51:28;16.70;99.90
52565;DHT22;38460;53.106;7.004;2023-07-29T04:53:54;16.70;99.90
52565;DHT22;38460;53.106;7.004;2023-07-29T04:56:20;16.70;99.90
52565;DHT22;38460;53.106;7.004;2023-07-29T04:58:45;16.80;99.90
52565;DHT22;38460;53.106;7.004;2023-07-29T05:01:11;16.80;99.90
52565;DHT22;38460;53.106;7.004;2023-07-29T05:03:37;16.80;99.90
52565;DHT22;38460;53.106;7.004;2023-07-29T05:06:05;16.80;99.90
52565;DHT22;38460;53.106;7.004;2023-07-29T05:08:31;16.90;99.90
52565;DHT22;38460;53.106;7.004;2023-07-29T05:10:56;16.90;99.90
52565;DHT22;38460;53.106;7.004;2023-07-29T05:13:22;16.90;99.90
52565;DHT22;38460;53.106;7.004;2023-07-29T05:15:49;17.00;99.90
52565;DHT22;38460;53.106;7.004;2023-07-29T05:18:16;17.00;99.90
52565;DHT22;38460;53.106;7.004;2023-07-29T05:20:42;17.00;99.90
52565;DHT22;38460;53.106;7.004;2023-07-29T05:23:08;17.00;99.90
52565;DHT22;38460;53.106;7.004;2023-07-29T05:25:33;17.00;99.90
52565;DHT22;38460;53.106;7.004;2023-07-29T05:28:02;17.10;99.90
52565;DHT22;38460;53.106;7.004;2023-07-29T05:30:29;17.10;99.90
52565;DHT22;38460;53.106;7.004;2023-07-29T05:32:57;17.10;99.90
52565;DHT22;38460;53.106;7.004;2023-07-29T05:35:23;17.10;99.90
52565;DHT22;38460;53.106;7.004;2023-07-29T05:37:49;17.10;99.90
52565;DHT22;38460;53.106;7.004;2023-07-29T05:40:15;17.10;99.90
52565;DHT22;38460;53.106;7.004;2023-07-29T05:42:40;17.10;99.90
52565;DHT22;38460;53.106;7.004;2023-07-29T05:45:07;17.10;99.90
52565;DHT22;38460;53.106;7.004;2023-07-29T05:47:33;17.20;99.90
52565;DHT22;38460;53.106;7.004;2023-07-29T05:49:58;17.20;99.90
52565;DHT22;38460;53.106;7.004;2023-07-29T05:52:25;17.20;99.90
52565;DHT22;38460;53.106;7.004;2023-07-29T05:54:51;17.20;99.90
52565;DHT22;38460;53.106;7.004;2023-07-29T05:57:16;17.30;99.90
52565;DHT22;38460;53.106;7.004;2023-07-29T05:59:42;17.30;99.90
52565;DHT22;38460;53.106;7.004;2023-07-29T06:02:08;17.30;99.90
52565;DHT22;38460;53.106;7.004;2023-07-29T06:04:34;17.30;99.90
52565;DHT22;38460;53.106;7.004;2023-07-29T06:07:00;17.30;99.90
52565;DHT22;38460;53.106;7.004;2023-07-29T06:09:26;17.40;99.90
52565;DHT22;38460;53.106;7.004;2023-07-29T06:11:51;17.40;99.90
52565;DHT22;38460;53.106;7.004;2023-07-29T06:14:17;17.40;99.90
52565;DHT22;38460;53.106;7.004;2023-07-29T06:16:43;17.40;99.90
52565;DHT22;38460;53.106;7.004;2023-07-29T06:19:08;17.40;99.90
52565;DHT22;38460;53.106;7.004;2023-07-29T06:21:35;17.40;99.90
52565;DHT22;38460;53.106;7.004;2023-07-29T06:24:01;17.40;99.90
52565;DHT22;38460;53.106;7.004;2023-07-29T06:26:28;17.40;99.90
52565;DHT22;38460;53.106;7.004;2023-07-29T06:28:53;17.50;99.90
52565;DHT22;38460;53.106;7.004;2023-07-29T06:31:19;17.50;99.90
52565;DHT22;38460;53.106;7.004;2023-07-29T06:33:46;17.50;99.90
52565;DHT22;38460;53.106;7.004;2023-07-29T06:36:11;17.50;99.90
52565;DHT22;38460;53.106;7.004;2023-07-29T06:38:37;17.50;99.90
52565;DHT22;38460;53.106;7.004;2023-07-29T06:41:04;17.50;99.90
52565;DHT22;38460;53.106;7.004;2023-07-29T06:43:30;17.60;99.90
52565;DHT22;38460;53.106;7.004;2023-07-29T06:45:59;17.60;99.90
52565;DHT22;38460;53.106;7.004;2023-07-29T06:48:24;17.60;99.90
52565;DHT22;38460;53.106;7.004;2023-07-29T06:50:50;17.60;99.90
52565;DHT22;38460;53.106;7.004;2023-07-29T06:53:16;17.70;99.90
52565;DHT22;38460;53.106;7.004;2023-07-29T06:55:43;17.60;99.90
52565;DHT22;38460;53.106;7.004;2023-07-29T06:58:09;17.70;99.90
52565;DHT22;38460;53.106;7.004;2023-07-29T07:00:35;17.70;99.90
52565;DHT22;38460;53.106;7.004;2023-07-29T07:03:01;17.80;99.90
52565;DHT22;38460;53.106;7.004;2023-07-29T07:05:26;17.80;99.90
52565;DHT22;38460;53.106;7.004;2023-07-29T07:07:52;17.90;99.90
52565;DHT22;38460;53.106;7.004;2023-07-29T07:10:18;17.90;99.90
52565;DHT22;38460;53.106;7.004;2023-07-29T07:12:44;17.90;99.90
52565;DHT22;38460;53.106;7.004;2023-07-29T07:15:10;18.00;99.90
52565;DHT22;38460;53.106;7.004;2023-07-29T07:17:35;18.00;99.90
52565;DHT22;38460;53.106;7.004;2023-07-29T07:20:01;18.10;99.90
52565;DHT22;38460;53.106;7.004;2023-07-29T07:22:27;18.20;99.90
52565;DHT22;38460;53.106;7.004;2023-07-29T07:24:53;18.30;99.90
52565;DHT22;38460;53.106;7.004;2023-07-29T07:27:18;18.40;99.90
52565;DHT22;38460;53.106;7.004;2023-07-29T07:29:44;18.50;99.90
52565;DHT22;38460;53.106;7.004;2023-07-29T07:32:10;18.50;99.90
52565;DHT22;38460;53.106;7.004;2023-07-29T07:34:35;18.50;99.90
52565;DHT22;38460;53.106;7.004;2023-07-29T07:37:01;18.60;99.90
52565;DHT22;38460;53.106;7.004;2023-07-29T07:39:29;18.60;99.90
52565;DHT22;38460;53.106;7.004;2023-07-29T07:41:55;18.60;99.90
52565;DHT22;38460;53.106;7.004;2023-07-29T07:44:21;18.60;99.90
52565;DHT22;38460;53.106;7.004;2023-07-29T07:46:46;18.60;99.90
52565;DHT22;38460;53.106;7.004;2023-07-29T07:49:12;18.70;99.90
52565;DHT22;38460;53.106;7.004;2023-07-29T07:51:38;18.70;99.90
52565;DHT22;38460;53.106;7.004;2023-07-29T07:54:04;18.70;99.90
52565;DHT22;38460;53.106;7.004;2023-07-29T07:56:30;18.80;99.90
52565;DHT22;38460;53.106;7.004;2023-07-29T07:58:56;18.80;99.90
52565;DHT22;38460;53.106;7.004;2023-07-29T08:01:21;18.80;99.90
52565;DHT22;38460;53.106;7.004;2023-07-29T08:03:47;18.80;99.90
52565;DHT22;38460;53.106;7.004;2023-07-29T08:06:13;18.90;99.90
52565;DHT22;38460;53.106;7.004;2023-07-29T08:08:39;19.00;99.90
52565;DHT22;38460;53.106;7.004;2023-07-29T08:11:04;19.00;99.90
52565;DHT22;38460;53.106;7.004;2023-07-29T08:13:30;19.10;99.90
52565;DHT22;38460;53.106;7.004;2023-07-29T08:15:56;19.10;99.90
52565;DHT22;38460;53.106;7.004;2023-07-29T08:18:22;19.10;99.90
52565;DHT22;38460;53.106;7.004;2023-07-29T08:20:58;19.20;99.90
52565;DHT22;38460;53.106;7.004;2023-07-29T08:23:25;19.20;99.90
52565;DHT22;38460;53.106;7.004;2023-07-29T08:25:56;19.20;99.90
52565;DHT22;38460;53.106;7.004;2023-07-29T08:28:30;19.20;99.90
52565;DHT22;38460;53.106;7.004;2023-07-29T08:30:56;19.30;99.90
52565;DHT22;38460;53.106;7.004;2023-07-29T08:33:22;19.30;99.90
52565;DHT22;38460;53.106;7.004;2023-07-29T08:35:48;19.40;99.90
52565;DHT22;38460;53.106;7.004;2023-07-29T08:38:14;19.40;99.90
52565;DHT22;38460;53.106;7.004;2023-07-29T08:43:32;19.70;99.90
52565;DHT22;38460;53.106;7.004;2023-07-29T08:45:58;19.80;99.90
52565;DHT22;38460;53.106;7.004;2023-07-29T08:48:45;19.90;99.90
52565;DHT22;38460;53.106;7.004;2023-07-29T08:51:12;20.00;99.90
52565;DHT22;38460;53.106;7.004;2023-07-29T08:53:38;20.10;99.90
52565;DHT22;38460;53.106;7.004;2023-07-29T08:56:06;20.20;99.90
52565;DHT22;38460;53.106;7.004;2023-07-29T08:58:32;20.20;99.90
52565;DHT22;38460;53.106;7.004;2023-07-29T09:00:59;20.30;99.90
52565;DHT22;38460;53.106;7.004;2023-07-29T09:03:25;20.40;99.90
52565;DHT22;38460;53.106;7.004;2023-07-29T09:05:51;20.40;99.90
52565;DHT22;38460;53.106;7.004;2023-07-29T09:08:17;20.40;99.90
52565;DHT22;38460;53.106;7.004;2023-07-29T09:10:43;20.40;99.90
52565;DHT22;38460;53.106;7.004;2023-07-29T09:13:09;20.40;99.90
52565;DHT22;38460;53.106;7.004;2023-07-29T09:15:36;20.40;99.90
52565;DHT22;38460;53.106;7.004;2023-07-29T09:18:30;20.30;99.90
52565;DHT22;38460;53.106;7.004;2023-07-29T09:20:59;20.30;99.90
52565;DHT22;38460;53.106;7.004;2023-07-29T09:23:28;20.30;99.90
52565;DHT22;38460;53.106;7.004;2023-07-29T09:26:03;20.30;99.90
52565;DHT22;38460;53.106;7.004;2023-07-29T09:28:40;20.40;99.90
52565;DHT22;38460;53.106;7.004;2023-07-29T09:31:06;20.50;99.90
52565;DHT22;38460;53.106;7.004;2023-07-29T09:33:35;20.60;99.90
52565;DHT22;38460;53.106;7.004;2023-07-29T09:36:09;20.60;99.90
52565;DHT22;38460;53.106;7.004;2023-07-29T09:38:35;20.60;99.90
52565;DHT22;38460;53.106;7.004;2023-07-29T09:41:01;20.60;99.90
52565;DHT22;38460;53.106;7.004;2023-07-29T09:43:35;20.50;99.90
52565;DHT22;38460;53.106;7.004;2023-07-29T09:46:01;20.50;99.90
52565;DHT22;38460;53.106;7.004;2023-07-29T09:48:28;20.50;99.90
52565;DHT22;38460;53.106;7.004;2023-07-29T09:50:57;20.50;99.90
52565;DHT22;38460;53.106;7.004;2023-07-29T09:53:24;20.50;99.90
52565;DHT22;38460;53.106;7.004;2023-07-29T09:55:50;20.60;99.90
52565;DHT22;38460;53.106;7.004;2023-07-29T09:58:26;20.60;99.90
52565;DHT22;38460;53.106;7.004;2023-07-29T10:00:52;20.70;99.90
52565;DHT22;38460;53.106;7.004;2023-07-29T10:03:21;20.80;99.90
52565;DHT22;38460;53.106;7.004;2023-07-29T10:05:48;20.90;99.90
52565;DHT22;38460;53.106;7.004;2023-07-29T10:08:14;21.00;99.90
52565;DHT22;38460;53.106;7.004;2023-07-29T10:10:43;21.10;99.90
52565;DHT22;38460;53.106;7.004;2023-07-29T10:13:09;21.20;99.90
52565;DHT22;38460;53.106;7.004;2023-07-29T10:15:36;21.20;99.90
52565;DHT22;38460;53.106;7.004;2023-07-29T10:18:02;21.20;99.90
52565;DHT22;38460;53.106;7.004;2023-07-29T10:20:30;21.20;99.90
52565;DHT22;38460;53.106;7.004;2023-07-29T10:22:59;21.10;99.90
52565;DHT22;38460;53.106;7.004;2023-07-29T10:25:38;21.20;99.90
52565;DHT22;38460;53.106;7.004;2023-07-29T10:28:08;21.20;99.90
52565;DHT22;38460;53.106;7.004;2023-07-29T10:30:38;21.30;99.90
52565;DHT22;38460;53.106;7.004;2023-07-29T10:33:05;21.60;99.90
52565;DHT22;38460;53.106;7.004;2023-07-29T10:35:34;21.60;99.90
52565;DHT22;38460;53.106;7.004;2023-07-29T10:38:02;21.70;99.90
52565;DHT22;38460;53.106;7.004;2023-07-29T10:40:47;21.80;99.90
52565;DHT22;38460;53.106;7.004;2023-07-29T10:43:19;21.90;99.90
52565;DHT22;38460;53.106;7.004;2023-07-29T10:45:45;22.10;99.90
52565;DHT22;38460;53.106;7.004;2023-07-29T10:51:36;22.30;99.90
52565;DHT22;38460;53.106;7.004;2023-07-29T10:56:34;22.30;99.90
52565;DHT22;38460;53.106;7.004;2023-07-29T11:01:40;22.50;99.90
52565;DHT22;38460;53.106;7.004;2023-07-29T11:12:40;22.90;99.90
52565;DHT22;38460;53.106;7.004;2023-07-29T11:17:59;22.80;99.90
52565;DHT22;38460;53.106;7.004;2023-07-29T11:22:57;22.90;99.90
52565;DHT22;38460;53.106;7.004;2023-07-29T11:25:24;23.00;99.90
52565;DHT22;38460;53.106;7.004;2023-07-29T11:27:55;23.00;99.90
52565;DHT22;38460;53.106;7.004;2023-07-29T11:30:22;22.90;99.90
52565;DHT22;38460;53.106;7.004;2023-07-29T11:32:55;22.90;99.90
52565;DHT22;38460;53.106;7.004;2023-07-29T11:35:21;22.90;99.90
52565;DHT22;38460;53.106;7.004;2023-07-29T11:37:53;22.80;99.90
52565;DHT22;38460;53.106;7.004;2023-07-29T11:40:21;22.80;99.90
52565;DHT22;38460;53.106;7.004;2023-07-29T11:42:47;22.80;99.90
52565;DHT22;38460;53.106;7.004;2023-07-29T11:45:14;22.80;99.90
52565;DHT22;38460;53.106;7.004;2023-07-29T11:47:40;22.70;99.90
52565;DHT22;38460;53.106;7.004;2023-07-29T11:50:07;22.60;99.90
52565;DHT22;38460;53.106;7.004;2023-07-29T11:52:37;22.40;99.90
52565;DHT22;38460;53.106;7.004;2023-07-29T11:55:05;22.30;99.90
52565;DHT22;38460;53.106;7.004;2023-07-29T11:57:35;22.20;99.90
52565;DHT22;38460;53.106;7.004;2023-07-29T12:00:09;22.20;99.90
52565;DHT22;38460;53.106;7.004;2023-07-29T12:02:37;22.20;99.90
52565;DHT22;38460;53.106;7.004;2023-07-29T12:05:07;22.30;99.90
52565;DHT22;38460;53.106;7.004;2023-07-29T12:07:34;22.50;99.90
52565;DHT22;38460;53.106;7.004;2023-07-29T12:10:00;22.70;99.90
52565;DHT22;38460;53.106;7.004;2023-07-29T12:12:26;22.90;99.90
52565;DHT22;38460;53.106;7.004;2023-07-29T12:14:54;23.00;99.90
52565;DHT22;38460;53.106;7.004;2023-07-29T12:17:20;23.00;99.90
52565;DHT22;38460;53.106;7.004;2023-07-29T12:19:46;23.00;99.90
52565;DHT22;38460;53.106;7.004;2023-07-29T12:22:12;23.10;99.90
52565;DHT22;38460;53.106;7.004;2023-07-29T12:24:40;23.10;99.90
52565;DHT22;38460;53.106;7.004;2023-07-29T12:27:10;23.30;99.90
52565;DHT22;38460;53.106;7.004;2023-07-29T12:29:40;23.40;99.90
52565;DHT22;38460;53.106;7.004;2023-07-29T12:32:07;23.50;99.90
52565;DHT22;38460;53.106;7.004;2023-07-29T12:34:33;23.60;99.90
52565;DHT22;38460;53.106;7.004;2023-07-29T12:37:03;23.70;99.90
52565;DHT22;38460;53.106;7.004;2023-07-29T12:39:31;23.80;99.90
52565;DHT22;38460;53.106;7.004;2023-07-29T12:41:58;23.70;99.90
52565;DHT22;38460;53.106;7.004;2023-07-29T12:44:27;23.60;99.90
52565;DHT22;38460;53.106;7.004;2023-07-29T12:46:53;23.40;99.90
52565;DHT22;38460;53.106;7.004;2023-07-29T12:49:19;23.40;99.90
52565;DHT22;38460;53.106;7.004;2023-07-29T12:51:45;23.40;99.90
52565;DHT22;38460;53.106;7.004;2023-07-29T12:54:11;23.40;99.90
52565;DHT22;38460;53.106;7.004;2023-07-29T12:56:37;23.50;99.90
52565;DHT22;38460;53.106;7.004;2023-07-29T12:59:03;23.50;99.90
52565;DHT22;38460;53.106;7.004;2023-07-29T13:01:29;23.30;99.90
52565;DHT22;38460;53.106;7.004;2023-07-29T13:03:55;23.20;99.90
52565;DHT22;38460;53.106;7.004;2023-07-29T13:06:22;23.20;99.90
52565;DHT22;38460;53.106;7.004;2023-07-29T13:08:48;23.10;99.90
52565;DHT22;38460;53.106;7.004;2023-07-29T13:11:15;23.40;99.90
52565;DHT22;38460;53.106;7.004;2023-07-29T13:13:41;23.50;99.90
52565;DHT22;38460;53.106;7.004;2023-07-29T13:16:07;23.70;99.90
52565;DHT22;38460;53.106;7.004;2023-07-29T13:18:33;23.80;99.90
52565;DHT22;38460;53.106;7.004;2023-07-29T13:20:59;23.90;99.90
52565;DHT22;38460;53.106;7.004;2023-07-29T13:23:26;24.10;99.90
52565;DHT22;38460;53.106;7.004;2023-07-29T13:25:52;24.10;99.90
52565;DHT22;38460;53.106;7.004;2023-07-29T13:28:18;24.10;99.90
52565;DHT22;38460;53.106;7.004;2023-07-29T13:30:44;24.00;99.90
52565;DHT22;38460;53.106;7.004;2023-07-29T13:33:10;24.00;99.90
52565;DHT22;38460;53.106;7.004;2023-07-29T13:35:36;24.20;99.90
52565;DHT22;38460;53.106;7.004;2023-07-29T13:38:02;24.30;99.90
52565;DHT22;38460;53.106;7.004;2023-07-29T13:40:28;24.40;99.90
52565;DHT22;38460;53.106;7.004;2023-07-29T13:42:54;24.60;99.90
52565;DHT22;38460;53.106;7.004;2023-07-29T13:45:20;24.70;99.90
52565;DHT22;38460;53.106;7.004;2023-07-29T13:47:46;25.00;99.90
52565;DHT22;38460;53.106;7.004;2023-07-29T13:50:12;25.20;99.90
52565;DHT22;38460;53.106;7.004;2023-07-29T13:52:38;25.30;99.90
52565;DHT22;38460;53.106;7.004;2023-07-29T13:55:05;25.20;99.90
52565;DHT22;38460;53.106;7.004;2023-07-29T13:57:31;25.10;99.90
52565;DHT22;38460;53.106;7.004;2023-07-29T13:59:57;25.00;99.90
52565;DHT22;38460;53.106;7.004;2023-07-29T14:02:23;25.00;99.90
52565;DHT22;38460;53.106;7.004;2023-07-29T14:04:49;24.90;99.90
52565;DHT22;38460;53.106;7.004;2023-07-29T14:07:15;25.00;99.90
52565;DHT22;38460;53.106;7.004;2023-07-29T14:09:41;25.10;99.90
52565;DHT22;38460;53.106;7.004;2023-07-29T14:12:08;25.20;99.90
52565;DHT22;38460;53.106;7.004;2023-07-29T14:14:38;25.30;99.90
52565;DHT22;38460;53.106;7.004;2023-07-29T14:17:04;25.30;99.90
52565;DHT22;38460;53.106;7.004;2023-07-29T14:19:31;25.20;99.90
52565;DHT22;38460;53.106;7.004;2023-07-29T14:21:56;25.20;99.90
52565;DHT22;38460;53.106;7.004;2023-07-29T14:24:22;25.20;99.90
52565;DHT22;38460;53.106;7.004;2023-07-29T14:26:48;25.40;99.90
52565;DHT22;38460;53.106;7.004;2023-07-29T14:29:14;25.30;99.90
52565;DHT22;38460;53.106;7.004;2023-07-29T14:31:40;25.20;99.90
52565;DHT22;38460;53.106;7.004;2023-07-29T14:34:05;25.10;99.90
52565;DHT22;38460;53.106;7.004;2023-07-29T14:36:31;25.00;99.90
52565;DHT22;38460;53.106;7.004;2023-07-29T14:38:57;25.10;99.90
52565;DHT22;38460;53.106;7.004;2023-07-29T14:41:23;25.20;99.90
52565;DHT22;38460;53.106;7.004;2023-07-29T14:43:48;25.10;99.90
52565;DHT22;38460;53.106;7.004;2023-07-29T14:46:14;24.80;99.90
52565;DHT22;38460;53.106;7.004;2023-07-29T14:48:40;25.00;99.90
52565;DHT22;38460;53.106;7.004;2023-07-29T14:51:05;25.10;99.90
52565;DHT22;38460;53.106;7.004;2023-07-29T14:53:31;25.20;99.90
52565;DHT22;38460;53.106;7.004;2023-07-29T14:55:57;25.10;99.90
52565;DHT22;38460;53.106;7.004;2023-07-29T14:58:23;25.10;99.90
52565;DHT22;38460;53.106;7.004;2023-07-29T15:00:54;25.20;99.90
52565;DHT22;38460;53.106;7.004;2023-07-29T15:03:19;25.20;99.90
52565;DHT22;38460;53.106;7.004;2023-07-29T15:05:45;25.20;99.90
52565;DHT22;38460;53.106;7.004;2023-07-29T15:08:11;25.00;99.90
52565;DHT22;38460;53.106;7.004;2023-07-29T15:10:36;24.80;99.90
52565;DHT22;38460;53.106;7.004;2023-07-29T15:13:03;24.60;99.90
52565;DHT22;38460;53.106;7.004;2023-07-29T15:15:29;24.50;99.90
52565;DHT22;38460;53.106;7.004;2023-07-29T15:17:55;24.50;99.90
52565;DHT22;38460;53.106;7.004;2023-07-29T15:20:22;24.60;99.90
52565;DHT22;38460;53.106;7.004;2023-07-29T15:22:48;24.60;99.90
52565;DHT22;38460;53.106;7.004;2023-07-29T15:25:14;24.70;99.90
52565;DHT22;38460;53.106;7.004;2023-07-29T15:27:39;24.70;99.90
52565;DHT22;38460;53.106;7.004;2023-07-29T15:30:06;24.70;99.90
52565;DHT22;38460;53.106;7.004;2023-07-29T15:32:32;24.60;99.90
52565;DHT22;38460;53.106;7.004;2023-07-29T15:34:58;24.50;99.90
52565;DHT22;38460;53.106;7.004;2023-07-29T15:37:27;24.30;99.90
52565;DHT22;38460;53.106;7.004;2023-07-29T15:39:52;24.20;99.90
52565;DHT22;38460;53.106;7.004;2023-07-29T15:42:19;24.10;99.90
52565;DHT22;38460;53.106;7.004;2023-07-29T15:44:44;23.90;99.90
52565;DHT22;38460;53.106;7.004;2023-07-29T15:47:10;23.90;99.90
52565;DHT22;38460;53.106;7.004;2023-07-29T15:49:38;23.90;99.90
52565;DHT22;38460;53.106;7.004;2023-07-29T15:52:04;24.00;99.90
52565;DHT22;38460;53.106;7.004;2023-07-29T15:54:30;23.90;99.90
52565;DHT22;38460;53.106;7.004;2023-07-29T15:56:56;23.80;99.90